Time;durP1;ratioP1;P1;durP2;ratioP2;P2;SDS_P1;SDS_P2;PMS_P1;PMS_P2;Temp;Humidity;BMP_temperature;BMP_pressure;BME280_temperature;BME280_humidity;BME280_pressure;Samples;Min_cycle;Max_cycle;Signal;HPM_P1;HPM_P2
2021/11/20 00:02:01;;;;;;;32.50;15.57;;;;;;;5.67;100.00;100440.63;5031937;28;20112;-78
2021/11/20 00:04:28;;;;;;;32.67;15.97;;;;;;;5.62;100.00;100437.44;5032635;28;20042;-78
2021/11/20 00:06:58;;;;;;;28.92;15.80;;;;;;;5.64;100.00;100435.47;5032205;28;20485;-78
2021/11/20 00:09:27;;;;;;;28.50;15.45;;;;;;;5.61;100.00;100435.72;5032154;28;20500;-78
2021/11/20 00:11:58;;;;;;;33.53;14.88;;;;;;;5.57;100.00;100426.16;5031352;28;20045;-78
2021/11/20 00:14:26;;;;;;;29.20;15.25;;;;;;;5.73;100.00;100429.34;5030750;28;20503;-78
2021/11/20 00:16:55;;;;;;;27.75;15.30;;;;;;;5.70;100.00;100424.19;5032669;28;20547;-78
2021/11/20 00:19:25;;;;;;;31.73;16.42;;;;;;;5.78;100.00;100435.25;5023540;28;20130;-78
2021/11/20 00:21:55;;;;;;;36.53;17.00;;;;;;;5.81;100.00;100437.69;5032635;28;20056;-78
2021/11/20 00:24:25;;;;;;;40.00;16.17;;;;;;;5.85;100.00;100430.19;5031973;28;20045;-78
2021/11/20 00:26:52;;;;;;;32.75;15.38;;;;;;;5.82;100.00;100420.50;5032526;28;20107;-78
2021/11/20 00:29:27;;;;;;;37.60;16.67;;;;;;;5.74;100.00;100428.38;5022107;28;20050;-78
2021/11/20 00:31:57;;;;;;;32.72;15.57;;;;;;;5.82;100.00;100430.44;5031916;28;20080;-78
2021/11/20 00:34:26;;;;;;;31.92;15.40;;;;;;;5.71;100.00;100420.53;5031418;28;20489;-78
2021/11/20 00:36:54;;;;;;;29.60;15.13;;;;;;;5.68;100.00;100421.63;5031476;28;20111;-78
2021/11/20 00:39:23;;;;;;;28.17;15.55;;;;;;;5.60;100.00;100410.59;5031662;28;20107;-78
2021/11/20 00:41:50;;;;;;;29.55;15.73;;;;;;;5.68;100.00;100415.38;5031697;28;20046;-78
2021/11/20 00:44:18;;;;;;;29.67;14.90;;;;;;;5.61;100.00;100412.28;5030116;28;20065;-78
2021/11/20 00:46:47;;;;;;;29.67;14.93;;;;;;;5.62;100.00;100414.00;5031199;28;20057;-78
2021/11/20 00:49:16;;;;;;;29.77;15.00;;;;;;;5.61;100.00;100412.28;5030525;28;20045;-78
2021/11/20 00:51:43;;;;;;;30.00;14.77;;;;;;;5.46;100.00;100400.88;5031168;28;20046;-78
2021/11/20 00:54:11;;;;;;;29.58;15.05;;;;;;;5.59;100.00;100410.72;5031958;28;20049;-78
2021/11/20 00:56:39;;;;;;;31.35;15.52;;;;;;;5.62;100.00;100410.47;5031917;28;20104;-78
2021/11/20 00:59:07;;;;;;;35.45;15.93;;;;;;;5.61;100.00;100406.91;5029313;28;20493;-78
2021/11/20 01:01:37;;;;;;;30.77;16.25;;;;;;;5.61;100.00;100403.34;5031754;28;20076;-78
2021/11/20 01:04:03;;;;;;;;;;;;;;;5.74;100.00;100409.47;5032172;28;20049;-78
2021/11/20 01:06:33;;;;;;;31.77;15.75;;;;;;;5.56;100.00;100406.41;5031669;28;19975;-78
2021/11/20 01:09:00;;;;;;;36.73;16.83;;;;;;;5.59;100.00;100425.06;5024319;28;20045;-79
2021/11/20 01:11:30;;;;;;;30.30;15.38;;;;;;;5.53;100.00;100411.22;5032113;28;20045;-79
2021/11/20 01:13:59;;;;;;;30.95;16.05;;;;;;;5.48;100.00;100403.47;5031508;28;20048;-79
2021/11/20 01:16:27;;;;;;;27.85;14.95;;;;;;;5.64;100.00;100400.41;5030362;28;20341;-79
2021/11/20 01:18:54;;;;;;;27.38;15.27;;;;;;;5.57;100.00;100413.53;5030759;28;20103;-79
2021/11/20 01:21:21;;;;;;;34.17;15.93;;;;;;;5.69;100.00;100411.69;5030925;28;20093;-79
2021/11/20 01:23:50;;;;;;;34.60;16.38;;;;;;;5.63;100.00;100412.16;5031689;28;20037;-79
2021/11/20 01:26:19;;;;;;;28.40;14.75;;;;;;;5.61;100.00;100419.53;5031398;28;20142;-79
2021/11/20 01:28:49;;;;;;;32.53;16.40;;;;;;;5.63;100.00;100413.03;5031530;28;20413;-79
2021/11/20 01:31:16;;;;;;;27.77;15.00;;;;;;;5.57;100.00;100400.06;5031025;28;20515;-79
2021/11/20 01:33:44;;;;;;;27.42;14.57;;;;;;;5.48;100.00;100396.25;5028456;28;20115;-79
2021/11/20 01:36:13;;;;;;;29.55;15.70;;;;;;;5.49;100.00;100392.56;5031768;28;20514;-79
2021/11/20 01:38:40;;;;;;;29.10;15.82;;;;;;;5.54;100.00;100396.72;5030553;28;20104;-79
2021/11/20 01:41:09;;;;;;;27.80;14.30;;;;;;;5.62;100.00;100388.88;5031546;28;20081;-79
2021/11/20 01:43:35;;;;;;;31.58;14.80;;;;;;;5.55;100.00;100384.97;5031324;28;20163;-79
2021/11/20 01:46:13;;;;;;;26.70;14.43;;;;;;;5.69;100.00;100382.03;5030883;28;20112;-79
2021/11/20 01:49:09;;;;;;;28.73;15.43;;;;;;;5.68;100.00;100385.69;5029671;28;20045;-79
2021/11/20 01:51:39;;;;;;;26.88;13.75;;;;;;;5.54;100.00;100380.53;5029788;28;20100;-79
2021/11/20 01:54:14;;;;;;;29.83;15.32;;;;;;;5.54;100.00;100370.63;5034879;28;20054;-79
2021/11/20 01:56:48;;;;;;;29.88;15.65;;;;;;;5.58;100.00;100368.53;5034489;28;20466;-79
2021/11/20 01:59:21;;;;;;;27.27;14.75;;;;;;;5.55;100.00;100366.06;5023219;28;20045;-79
2021/11/20 02:01:51;;;;;;;26.10;13.77;;;;;;;5.54;100.00;100353.56;5022995;28;20107;-79
2021/11/20 02:04:27;;;;;;;29.77;15.60;;;;;;;5.56;100.00;100347.06;5032777;28;20096;-79
2021/11/20 02:07:00;;;;;;;26.67;15.05;;;;;;;5.60;100.00;100353.94;5031365;28;20045;-79
2021/11/20 02:09:33;;;;;;;32.65;15.20;;;;;;;5.67;100.00;100352.47;5034294;28;20049;-79
2021/11/20 02:12:05;;;;;;;31.23;15.35;;;;;;;5.62;100.00;100348.41;5034785;28;20421;-79
2021/11/20 02:14:32;;;;;;;32.08;14.77;;;;;;;5.65;100.00;100342.78;5034366;28;20127;-80
2021/11/20 02:17:06;;;;;;;31.15;15.40;;;;;;;5.59;100.00;100340.56;5021341;28;20092;-80
2021/11/20 02:19:37;;;;;;;32.80;15.02;;;;;;;5.58;100.00;100323.50;5031260;28;20050;-79
2021/11/20 02:22:08;;;;;;;29.80;14.60;;;;;;;5.68;100.00;100337.13;5019816;28;20147;-79
2021/11/20 02:24:34;;;;;;;23.90;13.63;;;;;;;5.54;100.00;100332.84;5033731;28;20096;-79
2021/11/20 02:27:05;;;;;;;30.65;15.63;;;;;;;5.55;100.00;100323.75;5027038;28;20046;-79
2021/11/20 02:29:32;;;;;;;31.20;15.30;;;;;;;5.51;100.00;100327.72;5021304;28;20037;-79
2021/11/20 02:32:03;;;;;;;26.48;13.90;;;;;;;5.41;100.00;100313.25;5034560;28;20150;-79
2021/11/20 02:34:32;;;;;;;27.50;14.07;;;;;;;5.56;100.00;100321.94;5034504;28;20055;-79
2021/11/20 02:36:59;;;;;;;30.57;14.47;;;;;;;5.59;100.00;100316.28;5035019;28;20440;-79
2021/11/20 02:39:31;;;;;;;28.63;14.98;;;;;;;5.54;100.00;100315.78;5033562;28;20084;-79
2021/11/20 02:42:01;;;;;;;33.10;15.50;;;;;;;5.54;100.00;100313.09;5025232;28;20286;-79
2021/11/20 02:44:28;;;;;;;;;;;;;;;5.50;100.00;100309.81;5034185;28;20280;-79
2021/11/20 02:46:59;;;;;;;27.20;14.90;;;;;;;5.47;100.00;100308.19;5034238;28;19921;-79
2021/11/20 02:49:27;;;;;;;29.38;15.07;;;;;;;5.54;100.00;100297.78;5033725;28;20045;-79
2021/11/20 02:51:59;;;;;;;28.73;14.93;;;;;;;5.60;100.00;100302.69;5034343;28;20093;-79
2021/11/20 02:54:27;;;;;;;31.88;15.00;;;;;;;5.60;100.00;100300.00;5034053;28;20441;-79
2021/11/20 02:56:56;;;;;;;30.33;14.52;;;;;;;5.47;100.00;100297.41;5032724;28;20053;-79
2021/11/20 02:59:23;;;;;;;28.58;14.45;;;;;;;5.48;100.00;100290.19;5033616;28;20508;-79
2021/11/20 03:01:52;;;;;;;26.73;14.25;;;;;;;5.51;100.00;100281.84;5033936;28;20076;-79
2021/11/20 03:04:21;;;;;;;28.90;14.60;;;;;;;5.59;100.00;100279.38;5034066;28;20053;-79
2021/11/20 03:06:52;;;;;;;28.88;14.98;;;;;;;5.42;100.00;100278.06;5032746;28;20041;-79
2021/11/20 03:09:23;;;;;;;28.45;14.98;;;;;;;5.43;100.00;100270.81;5033293;28;20500;-79
2021/11/20 03:11:51;;;;;;;27.75;14.05;;;;;;;5.44;100.00;100270.69;5032790;28;20152;-79
2021/11/20 03:14:18;;;;;;;30.52;13.38;;;;;;;5.39;100.00;100267.53;5034069;28;20050;-79
2021/11/20 03:16:48;;;;;;;33.22;14.13;;;;;;;5.43;100.00;100270.81;5030963;28;20069;-79
2021/11/20 03:19:15;;;;;;;28.77;14.70;;;;;;;5.38;100.00;100264.97;5025755;28;20073;-79
2021/11/20 03:21:44;;;;;;;31.50;14.80;;;;;;;5.40;100.00;100262.97;5033062;28;20073;-80
2021/11/20 03:24:15;;;;;;;26.23;14.20;;;;;;;5.40;100.00;100257.59;5033962;28;20050;-79
2021/11/20 03:26:42;;;;;;;26.23;13.43;;;;;;;5.44;100.00;100268.00;5032688;28;20080;-80
2021/11/20 03:29:09;;;;;;;24.10;13.93;;;;;;;5.44;100.00;100261.75;5032425;28;20072;-80
2021/11/20 03:31:36;;;;;;;28.25;14.20;;;;;;;5.44;100.00;100265.31;5032148;28;20077;-79
2021/11/20 03:34:04;;;;;;;27.83;13.73;;;;;;;5.41;100.00;100265.56;5033427;28;20137;-79
2021/11/20 03:36:34;;;;;;;26.15;14.07;;;;;;;5.36;100.00;100248.91;5023276;28;20060;-80
2021/11/20 03:39:01;;;;;;;31.17;15.30;;;;;;;5.44;100.00;100256.38;5027986;28;20060;-80
2021/11/20 03:41:29;;;;;;;31.05;14.70;;;;;;;5.41;100.00;100253.91;5033198;28;20099;-80
2021/11/20 03:43:56;;;;;;;28.17;13.95;;;;;;;5.47;100.00;100253.41;5033153;28;20095;-80
2021/11/20 03:46:23;;;;;;;32.13;14.60;;;;;;;5.41;100.00;100251.22;5031283;28;20046;-80
2021/11/20 03:48:50;;;;;;;26.90;13.75;;;;;;;5.41;100.00;100252.06;5028221;28;20382;-79
2021/11/20 03:51:17;;;;;;;28.48;14.32;;;;;;;5.46;100.00;100252.53;5032082;28;20136;-79
2021/11/20 03:53:44;;;;;;;25.70;15.27;;;;;;;5.42;100.00;100255.63;5033320;28;20050;-79
2021/11/20 03:56:11;;;;;;;23.65;13.18;;;;;;;5.44;100.00;100250.97;5032755;28;20049;-80
2021/11/20 03:58:39;;;;;;;30.15;14.88;;;;;;;5.42;100.00;100248.41;5032822;28;20566;-79
2021/11/20 04:01:12;;;;;;;27.17;14.68;;;;;;;5.44;100.00;100251.81;5032291;28;20101;-79
2021/11/20 04:03:42;;;;;;;28.85;13.45;;;;;;;5.42;100.00;100245.69;5032283;28;20049;-79
2021/11/20 04:06:12;;;;;;;28.88;14.68;;;;;;;5.44;100.00;100249.13;5031934;28;20107;-80
2021/11/20 04:08:39;;;;;;;27.27;14.63;;;;;;;5.44;100.00;100242.88;5032234;28;20080;-79
2021/11/20 04:11:07;;;;;;;31.63;14.73;;;;;;;5.44;100.00;100249.13;5032504;28;20608;-79
2021/11/20 04:13:34;;;;;;;30.00;15.55;;;;;;;5.43;100.00;100238.47;5032130;28;20057;-79
2021/11/20 04:16:03;;;;;;;28.38;14.18;;;;;;;5.44;100.00;100240.19;5032502;28;20129;-79
2021/11/20 04:18:30;;;;;;;30.48;14.55;;;;;;;5.42;100.00;100228.63;5032132;28;20077;-79
2021/11/20 04:20:57;;;;;;;32.35;15.15;;;;;;;5.45;100.00;100231.09;5031333;28;20505;-79
2021/11/20 04:23:24;;;;;;;35.00;14.88;;;;;;;5.50;100.00;100224.34;5031807;28;20041;-80
2021/11/20 04:25:51;;;;;;;31.73;14.93;;;;;;;5.56;100.00;100230.22;5032767;28;20049;-79
2021/11/20 04:28:18;;;;;;;31.27;14.02;;;;;;;5.44;100.00;100221.31;5031691;28;20042;-79
2021/11/20 04:30:46;;;;;;;32.50;15.27;;;;;;;5.47;100.00;100230.00;5032439;28;20111;-80
2021/11/20 04:33:15;;;;;;;29.75;14.45;;;;;;;5.43;100.00;100224.97;5023089;28;20077;-79
2021/11/20 04:35:43;;;;;;;33.92;14.90;;;;;;;5.46;100.00;100219.31;5030901;28;20085;-79
2021/11/20 04:38:12;;;;;;;33.17;16.17;;;;;;;5.44;100.00;100218.59;5031725;28;20050;-79
2021/11/20 04:40:39;;;;;;;30.77;14.63;;;;;;;5.37;100.00;100222.78;5031969;28;20049;-80
2021/11/20 04:43:07;;;;;;;32.42;15.80;;;;;;;5.43;100.00;100223.13;5032366;28;20144;-79
2021/11/20 04:45:36;;;;;;;32.55;15.65;;;;;;;5.40;100.00;100225.22;5030999;28;20053;-79
2021/11/20 04:48:05;;;;;;;30.67;15.63;;;;;;;5.36;100.00;100211.16;5030324;28;20489;-79
2021/11/20 04:50:34;;;;;;;32.20;15.75;;;;;;;5.40;100.00;100220.69;5032220;28;20454;-79
2021/11/20 04:53:01;;;;;;;32.40;16.75;;;;;;;5.43;100.00;100204.25;5030645;28;20099;-79
2021/11/20 04:55:28;;;;;;;31.13;15.00;;;;;;;5.44;100.00;100210.50;5031444;28;20465;-79
2021/11/20 04:57:55;;;;;;;32.45;16.35;;;;;;;5.39;100.00;100204.63;5031991;28;20053;-79
2021/11/20 05:00:24;;;;;;;32.60;15.73;;;;;;;5.35;100.00;100197.78;5031502;28;20122;-79
2021/11/20 05:02:51;;;;;;;35.78;15.57;;;;;;;5.39;100.00;100199.22;5031516;28;20057;-79
2021/11/20 05:05:19;;;;;;;32.08;14.65;;;;;;;5.34;100.00;100194.22;5031618;28;20081;-79
2021/11/20 05:07:47;;;;;;;35.25;16.73;;;;;;;5.45;100.00;100205.00;5029653;28;20052;-80
2021/11/20 05:10:15;;;;;;;35.70;14.65;;;;;;;5.47;100.00;100200.31;5031250;28;20045;-79
2021/11/20 05:12:43;;;;;;;30.58;14.65;;;;;;;5.44;100.00;100203.28;5030903;28;20045;-79
2021/11/20 05:15:12;;;;;;;32.60;15.35;;;;;;;5.42;100.00;100199.84;5031902;28;20112;-79
2021/11/20 05:17:39;;;;;;;34.33;15.80;;;;;;;5.38;100.00;100187.59;5031282;28;20127;-79
2021/11/20 05:20:07;;;;;;;32.67;14.52;;;;;;;5.46;100.00;100192.34;5031952;28;20046;-80
2021/11/20 05:22:34;;;;;;;34.20;15.77;;;;;;;5.38;100.00;100184.06;5031794;28;20124;-80
2021/11/20 05:25:06;;;;;;;32.22;15.10;;;;;;;5.39;100.00;100193.84;5033659;28;20053;-80
2021/11/20 05:27:33;;;;;;;28.90;14.10;;;;;;;5.34;100.00;100177.19;5034522;28;20111;-81
2021/11/20 05:30:04;;;;;;;36.35;16.30;;;;;;;5.29;100.00;100174.88;5035345;28;20053;-80
2021/11/20 05:32:31;;;;;;;32.97;16.40;;;;;;;5.40;100.00;100182.91;5035766;28;20441;-80
2021/11/20 05:34:58;;;;;;;32.67;16.50;;;;;;;5.34;100.00;100177.19;5035564;28;20468;-80
2021/11/20 05:37:25;;;;;;;30.23;15.82;;;;;;;5.43;100.00;100171.88;5035426;28;20050;-80
2021/11/20 05:39:52;;;;;;;30.45;14.85;;;;;;;5.41;100.00;100171.16;5035140;28;20100;-80
2021/11/20 05:42:20;;;;;;;36.08;16.38;;;;;;;5.32;100.00;100167.38;5031590;28;20123;-80
2021/11/20 05:44:47;;;;;;;32.60;15.13;;;;;;;5.27;100.00;100158.81;5035375;28;20390;-80
2021/11/20 05:47:13;;;;;;;36.30;15.75;;;;;;;5.36;100.00;100168.00;5033516;28;20111;-81
2021/11/20 05:49:42;;;;;;;31.30;14.70;;;;;;;5.37;100.00;100175.09;5035210;28;20092;-80
2021/11/20 05:52:11;;;;;;;29.10;15.55;;;;;;;5.40;100.00;100158.66;5035180;28;20041;-81
2021/11/20 05:54:38;;;;;;;33.25;14.77;;;;;;;5.44;100.00;100165.50;5035534;28;20088;-81
2021/11/20 05:57:05;;;;;;;30.95;15.20;;;;;;;5.34;100.00;100152.94;5033768;28;20065;-83
2021/11/20 05:59:33;;;;;;;32.42;16.85;;;;;;;5.44;100.00;100175.44;5035011;28;20045;-80
2021/11/20 06:02:00;;;;;;;33.42;14.93;;;;;;;5.38;100.00;100162.47;5035270;28;20045;-80
2021/11/20 06:04:29;;;;;;;30.40;14.65;;;;;;;5.46;100.00;100170.78;5033981;28;20045;-80
2021/11/20 06:06:56;;;;;;;36.58;16.38;;;;;;;5.39;100.00;100162.34;5034889;28;20077;-81
2021/11/20 06:09:23;;;;;;;29.95;14.57;;;;;;;5.22;100.00;100149.41;5032317;28;20049;-81
2021/11/20 06:11:50;;;;;;;32.95;14.43;;;;;;;5.23;100.00;100151.13;5035469;28;20135;-80
2021/11/20 06:14:18;;;;;;;29.23;15.82;;;;;;;5.26;100.00;100167.03;5031925;28;20111;-81
2021/11/20 06:16:46;;;;;;;31.80;16.08;;;;;;;5.21;100.00;100153.06;5035060;28;20136;-80
2021/11/20 06:19:13;;;;;;;33.03;16.27;;;;;;;5.29;100.00;100167.63;5034223;28;20103;-81
2021/11/20 06:21:40;;;;;;;32.45;15.60;;;;;;;5.29;100.00;100158.69;5034011;28;20049;-81
2021/11/20 06:24:07;;;;;;;31.00;15.88;;;;;;;5.31;100.00;100160.28;5034707;28;20045;-81
2021/11/20 06:26:34;;;;;;;32.88;15.18;;;;;;;5.29;100.00;100156.84;5034283;28;20053;-80
2021/11/20 06:29:01;;;;;;;29.17;13.80;;;;;;;5.25;100.00;100168.00;5033214;28;20127;-81
2021/11/20 06:31:28;;;;;;;31.73;14.77;;;;;;;5.25;100.00;100168.00;5034091;28;20053;-80
2021/11/20 06:33:58;;;;;;;29.33;14.50;;;;;;;5.25;100.00;100171.56;5034189;28;20456;-81
2021/11/20 06:36:24;;;;;;;31.52;14.85;;;;;;;5.23;100.00;100162.75;5034257;28;20115;-80
2021/11/20 06:38:51;;;;;;;34.08;14.88;;;;;;;5.26;100.00;100151.72;5033475;28;20054;-81
2021/11/20 06:41:18;;;;;;;26.02;13.43;;;;;;;5.31;100.00;100164.81;5034457;28;20056;-80
2021/11/20 06:43:45;;;;;;;26.27;15.07;;;;;;;5.24;100.00;100156.38;5032983;28;20082;-80
2021/11/20 06:46:15;;;;;;;28.13;13.65;;;;;;;5.20;100.00;100163.00;5033884;28;20085;-81
2021/11/20 06:48:42;;;;;;;27.63;14.98;;;;;;;5.21;100.00;100153.94;5033036;28;20050;-80
2021/11/20 06:51:15;;;;;;;26.42;14.20;;;;;;;5.22;100.00;100165.56;5034482;28;20095;-80
2021/11/20 06:53:43;;;;;;;28.95;14.05;;;;;;;5.21;100.00;100150.38;5033845;28;20539;-79
2021/11/20 06:56:14;;;;;;;29.58;14.55;;;;;;;5.17;100.00;100154.31;5034119;28;20107;-80
2021/11/20 07:01:25;;;;;;;29.73;14.18;;;;;;;5.26;100.00;100165.19;5026717;28;20486;-79
2021/11/20 07:03:55;;;;;;;29.60;14.07;;;;;;;5.27;100.00;100157.97;5033764;28;20543;-80
2021/11/20 07:06:27;;;;;;;35.03;14.70;;;;;;;5.29;100.00;100162.25;5033466;28;20055;-79
2021/11/20 07:08:56;;;;;;;27.33;14.32;;;;;;;5.29;100.00;100162.25;5033436;28;20390;-79
2021/11/20 07:11:24;;;;;;;24.35;12.93;;;;;;;5.37;100.00;100167.00;5033936;28;20115;-79
2021/11/20 07:13:51;;;;;;;28.92;13.75;;;;;;;5.40;100.00;100168.59;5032763;28;20073;-80
2021/11/20 07:16:19;;;;;;;26.95;13.07;;;;;;;5.42;100.00;100169.31;5026072;28;20551;-79
2021/11/20 07:18:48;;;;;;;31.80;14.90;;;;;;;5.37;100.00;100164.31;5033106;28;20547;-79
2021/11/20 07:21:15;;;;;;;32.75;14.85;;;;;;;5.37;100.00;100161.59;5033121;28;20311;-79
2021/11/20 07:23:43;;;;;;;23.08;13.00;;;;;;;5.31;100.00;100154.91;5030440;28;20111;-79
2021/11/20 07:26:11;;;;;;;24.65;13.25;;;;;;;5.37;100.00;100172.38;5033404;28;20127;-80
2021/11/20 07:28:38;;;;;;;29.98;13.57;;;;;;;5.43;100.00;100168.34;5032289;28;20103;-79
2021/11/20 07:31:06;;;;;;;26.67;13.05;;;;;;;5.44;100.00;100168.22;5032675;28;20133;-79
2021/11/20 07:33:33;;;;;;;24.33;12.45;;;;;;;5.40;100.00;100155.97;5023542;28;20087;-79
2021/11/20 07:36:03;;;;;;;26.88;13.00;;;;;;;5.42;100.00;100155.81;5024964;28;20049;-79
2021/11/20 07:38:34;;;;;;;25.23;12.27;;;;;;;5.43;100.00;100152.16;5023410;28;20096;-79
2021/11/20 07:41:05;;;;;;;20.88;12.02;;;;;;;5.49;100.00;100163.31;5032954;28;20037;-79
2021/11/20 07:43:32;;;;;;;26.05;13.60;;;;;;;5.53;100.00;100163.06;5027847;28;20072;-79
2021/11/20 07:45:59;;;;;;;28.27;12.38;;;;;;;5.50;100.00;100135.34;5031641;28;20049;-80
2021/11/20 07:48:27;;;;;;;21.50;12.57;;;;;;;5.62;100.00;100148.78;5032322;28;20064;-79
2021/11/20 07:51:00;;;;;;;23.88;12.75;;;;;;;5.60;100.00;100143.53;5031978;28;20037;-80
2021/11/20 07:53:27;;;;;;;24.35;12.20;;;;;;;5.59;100.00;100130.16;5032340;28;20045;-79
2021/11/20 07:55:54;;;;;;;22.25;12.68;;;;;;;5.72;100.00;100146.16;5031478;28;20107;-79
2021/11/20 07:58:32;;;;;;;27.00;12.23;;;;;;;5.82;100.00;100142.53;5026619;28;20037;-80
2021/11/20 08:01:01;;;;;;;23.95;12.15;;;;;;;5.88;100.00;100140.31;5032901;28;20099;-80
2021/11/20 08:03:28;;;;;;;21.10;11.88;;;;;;;5.96;100.00;100138.69;5034237;28;20501;-79
2021/11/20 08:05:57;;;;;;;23.75;11.52;;;;;;;6.16;100.00;100128.06;5032521;28;20058;-80
2021/11/20 08:08:24;;;;;;;21.95;12.07;;;;;;;6.08;100.00;100117.91;5032439;28;20527;-80
2021/11/20 08:10:51;;;;;;;28.95;14.00;;;;;;;6.07;100.00;100118.03;5029601;28;20456;-80
2021/11/20 08:13:19;;;;;;;21.02;11.68;;;;;;;6.14;100.00;100120.09;5013254;28;20084;-80
2021/11/20 08:15:48;;;;;;;20.83;11.05;;;;;;;6.30;100.00;100118.75;5026322;28;20087;-80
2021/11/20 08:18:17;;;;;;;19.20;10.23;;;;;;;6.32;100.00;100124.84;5031632;28;20044;-80
2021/11/20 08:20:46;;;;;;;22.63;11.63;;;;;;;6.33;100.00;100107.66;5029121;28;20387;-80
2021/11/20 08:23:14;;;;;;;22.00;11.07;;;;;;;6.39;100.00;100115.22;5030861;28;20045;-80
2021/11/20 08:25:46;;;;;;;25.83;10.85;;;;;;;6.45;100.00;100109.28;5031120;28;20037;-80
2021/11/20 08:28:14;;;;;;;23.55;11.27;;;;;;;6.56;100.00;100108.34;5031779;28;20436;-79
2021/11/20 08:30:47;;;;;;;19.27;10.80;;;;;;;6.70;100.00;100107.13;5031192;28;20053;-80
2021/11/20 08:33:14;;;;;;;23.10;12.02;;;;;;;6.77;100.00;100107.41;5030717;28;20099;-80
2021/11/20 08:35:41;;;;;;;19.42;10.73;;;;;;;6.75;100.00;100099.44;5030790;28;20380;-80
2021/11/20 08:38:10;;;;;;;16.85;9.60;;;;;;;6.71;100.00;100087.19;5031166;28;20104;-80
2021/11/20 08:40:37;;;;;;;19.33;10.60;;;;;;;6.72;100.00;100080.81;5032140;28;20057;-80
2021/11/20 08:43:07;;;;;;;24.80;11.25;;;;;;;6.79;100.00;100092.78;5031645;28;20123;-80
2021/11/20 08:45:40;;;;;;;20.08;10.77;;;;;;;6.83;100.00;100072.56;5031826;28;20053;-80
2021/11/20 08:48:09;;;;;;;17.95;10.07;;;;;;;6.91;100.00;100090.84;5030388;28;20103;-80
2021/11/20 08:50:38;;;;;;;24.08;11.55;;;;;;;6.88;100.00;100077.56;5031862;28;20150;-80
2021/11/20 08:53:05;;;;;;;24.73;12.10;;;;;;;6.85;100.00;100075.13;5031182;28;20077;-80
2021/11/20 08:55:32;;;;;;;21.92;12.23;;;;;;;7.06;100.00;100085.84;5027518;28;20457;-80
2021/11/20 08:58:02;;;;;;;24.75;12.40;;;;;;;7.06;100.00;100081.31;5031453;28;20539;-80
2021/11/20 09:00:35;;;;;;;22.35;11.65;;;;;;;7.17;100.00;100079.50;5031658;28;20041;-80
2021/11/20 09:03:05;;;;;;;19.55;11.52;;;;;;;7.08;100.00;100070.38;5031820;28;20053;-80
2021/11/20 09:05:42;;;;;;;21.20;12.00;;;;;;;7.16;100.00;100078.63;5024268;28;20057;-80
2021/11/20 09:08:14;;;;;;;24.10;12.38;;;;;;;7.23;100.00;100079.78;5030174;28;20515;-79
2021/11/20 09:10:50;;;;;;;22.92;12.20;;;;;;;7.30;100.00;100085.47;5026173;28;20099;-80
2021/11/20 09:13:22;;;;;;;29.25;13.13;;;;;;;7.22;100.00;100069.09;5031291;28;20060;-80
2021/11/20 09:15:52;;;;;;;22.58;12.40;;;;;;;7.29;100.00;100072.94;5031133;28;20048;-80
2021/11/20 09:18:19;;;;;;;20.13;11.20;;;;;;;7.23;100.00;100065.41;5031397;28;20063;-80
2021/11/20 09:23:28;;;;;;;22.20;11.93;;;;;;;7.47;100.00;100081.22;5010289;28;20061;-81
2021/11/20 09:25:57;;;;;;;24.75;12.43;;;;;;;7.39;100.00;100051.28;5027509;28;20402;-80
2021/11/20 09:28:35;;;;;;;23.25;12.18;;;;;;;7.52;100.00;100065.38;5027699;28;20056;-80
2021/11/20 09:31:05;;;;;;;25.85;12.20;;;;;;;7.71;100.00;100063.69;5030465;28;20052;-80
2021/11/20 09:33:32;;;;;;;23.55;13.00;;;;;;;7.65;100.00;100043.47;5030863;28;20049;-80
2021/11/20 09:36:01;;;;;;;21.70;11.55;;;;;;;7.80;100.00;100060.94;5030088;28;20227;-81
2021/11/20 09:38:30;;;;;;;24.75;13.18;;;;;;;7.79;100.00;100066.50;5030109;28;20050;-80
2021/11/20 09:44:18;;;;;;;24.55;12.20;;;;;;;7.90;100.00;100049.25;5001074;28;20107;-79
2021/11/20 09:46:49;;;;;;;22.80;12.32;;;;;;;7.90;100.00;100052.81;5027714;28;20547;-78
2021/11/20 09:49:22;;;;;;;21.45;12.02;;;;;;;7.94;100.00;100056.09;5032227;28;20057;-79
2021/11/20 09:51:58;;;;;;;20.10;10.95;;;;;;;7.96;100.00;100045.94;5033128;28;20112;-79
2021/11/20 09:54:32;;;;;;;20.10;12.10;;;;;;;7.98;100.00;100046.69;5032440;28;20096;-80
2021/11/20 09:57:17;;;;;;;19.67;9.73;;;;;;;7.97;100.00;100050.38;5032962;28;20050;-80
2021/11/20 09:59:50;;;;;;;17.08;9.65;;;;;;;7.88;100.00;100029.59;5015336;28;20485;-81
2021/11/20 10:02:22;;;;;;;17.25;9.02;;;;;;;7.94;100.00;100027.13;5022544;28;20080;-80
2021/11/20 10:04:56;;;;;;;14.15;7.45;;;;;;;7.84;100.00;100020.91;5030203;28;20052;-80
2021/11/20 10:08:07;;;;;;;13.70;8.13;;;;;;;7.79;100.00;100025.91;5029198;28;20049;-81
2021/11/20 10:10:36;;;;;;;13.45;7.20;;;;;;;7.89;100.00;100023.16;5034482;28;20107;-80
2021/11/20 10:13:15;;;;;;;8.88;6.15;;;;;;;8.08;100.00;100039.34;5036347;28;20053;-81
2021/11/20 10:16:10;;;;;;;12.20;6.75;;;;;;;8.17;100.00;100036.78;5036207;28;20403;-80
2021/11/20 10:18:49;;;;;;;8.80;4.88;;;;;;;7.92;99.38;100015.63;5037483;28;20049;-81
2021/11/20 10:21:20;;;;;;;6.80;4.07;;;;;;;7.96;98.16;100018.88;5034303;28;20057;-80
2021/11/20 10:24:02;;;;;;;6.47;4.43;;;;;;;7.97;99.31;100029.56;5031074;28;20061;-80
2021/11/20 10:26:46;;;;;;;7.60;4.78;;;;;;;7.94;100.00;100018.19;5027241;28;20136;-81
2021/11/20 10:29:52;;;;;;;7.78;4.75;;;;;;;8.03;100.00;100028.13;5026527;28;20056;-81
2021/11/20 10:32:22;;;;;;;8.55;4.40;;;;;;;8.04;98.09;100000.03;5030721;28;20053;-80
2021/11/20 10:34:52;;;;;;;8.52;5.15;;;;;;;8.11;97.83;100012.00;5035886;28;20046;-81
2021/11/20 10:37:26;;;;;;;7.63;4.70;;;;;;;8.07;97.60;99993.47;5036240;28;20401;-80
2021/11/20 10:39:57;;;;;;;7.90;5.07;;;;;;;8.19;98.16;100007.66;5035386;28;20504;-80
2021/11/20 10:42:40;;;;;;;8.25;4.75;;;;;;;8.31;95.31;100004.63;5034484;28;20456;-80
2021/11/20 10:45:13;;;;;;;10.20;5.65;;;;;;;8.42;97.53;100000.03;5034280;28;20053;-80
2021/11/20 10:47:43;;;;;;;9.27;4.90;;;;;;;8.40;96.31;100000.19;5032728;28;20058;-80
2021/11/20 10:50:27;;;;;;;8.10;4.53;;;;;;;8.43;94.25;100001.72;5035557;28;20053;-80
2021/11/20 10:53:18;;;;;;;6.45;4.47;;;;;;;8.39;95.13;99995.75;5035551;28;20079;-80
2021/11/20 10:55:58;;;;;;;6.88;4.25;;;;;;;8.33;91.67;99990.94;5023210;28;20512;-81
2021/11/20 10:58:58;;;;;;;6.43;4.00;;;;;;;8.30;92.98;99985.81;5031559;28;20103;-81
2021/11/20 11:01:44;;;;;;;6.05;4.13;;;;;;;8.14;94.16;99984.63;5018266;28;20049;-81
2021/11/20 11:04:26;;;;;;;6.40;4.38;;;;;;;8.22;95.39;99981.16;5035458;28;20559;-81
2021/11/20 11:06:58;;;;;;;7.07;4.53;;;;;;;8.09;95.65;99965.22;5035447;28;20050;-79
2021/11/20 11:09:41;;;;;;;7.82;3.60;;;;;;;8.18;92.53;99973.47;5034444;28;20045;-80
2021/11/20 11:12:16;;;;;;;9.00;4.32;;;;;;;8.32;94.32;99964.84;5019040;28;20054;-80
2021/11/20 11:14:56;;;;;;;7.47;4.28;;;;;;;8.22;94.72;99961.31;5015101;28;20151;-79
2021/11/20 11:18:14;;;;;;;6.45;3.40;;;;;;;8.31;93.32;99952.31;5026045;28;20115;-80
2021/11/20 11:21:05;;;;;;;6.47;3.67;;;;;;;8.31;92.75;99936.06;4999350;28;20068;-79
2021/11/20 11:23:37;;;;;;;5.55;3.33;;;;;;;8.14;91.87;99927.75;5034955;28;20103;-80
2021/11/20 11:26:07;;;;;;;6.53;3.60;;;;;;;8.08;92.24;99930.19;5032507;28;20060;-80
2021/11/20 11:28:41;;;;;;;5.33;3.53;;;;;;;8.17;93.63;99933.84;5026567;28;20107;-80
2021/11/20 11:31:33;;;;;;;5.10;3.70;;;;;;;8.37;91.97;99931.88;5034994;28;20038;-80
2021/11/20 11:34:03;;;;;;;7.40;3.53;;;;;;;8.33;92.71;99920.50;5025496;28;20049;-80
2021/11/20 11:36:40;;;;;;;4.25;2.88;;;;;;;8.39;91.15;99916.34;5035016;28;20049;-80
2021/11/20 11:39:32;;;;;;;4.20;2.85;;;;;;;8.55;89.57;99910.25;5034983;28;20056;-80